Time;durP1;ratioP1;P1;durP2;ratioP2;P2;SDS_P1;SDS_P2;PMS_P1;PMS_P2;Temp;Humidity;BMP_temperature;BMP_pressure;BME280_temperature;BME280_humidity;BME280_pressure;Samples;Min_cycle;Max_cycle;Signal;HPM_P1;HPM_P2
2022/06/24 00:00:00;;;;;;;8.27;5.03;;;23.30;75.30;;;;;;5057001;28;20076;-63
2022/06/24 00:02:26;;;;;;;8.65;4.18;;;23.30;75.50;;;;;;5042218;28;20036;-63
2022/06/24 00:04:57;;;;;;;8.82;4.53;;;23.30;75.60;;;;;;5040215;28;20021;-63
2022/06/24 00:07:22;;;;;;;;;;;23.30;75.70;;;;;;5051257;28;20038;-63
2022/06/24 00:09:49;;;;;;;6.60;4.07;;;23.30;75.50;;;;;;5051896;28;20360;-63
2022/06/24 00:12:18;;;;;;;8.25;4.80;;;23.30;75.60;;;;;;5040146;28;20028;-63
2022/06/24 00:14:45;;;;;;;10.40;4.75;;;23.30;75.70;;;;;;5042664;28;20045;-63
2022/06/24 00:17:15;;;;;;;7.60;4.68;;;23.20;75.80;;;;;;5044116;28;20026;-63
2022/06/24 00:19:55;;;;;;;7.63;4.80;;;23.20;75.90;;;;;;5055027;28;20025;-63
2022/06/24 00:22:21;;;;;;;9.30;5.28;;;23.20;75.90;;;;;;5049581;28;20049;-63
2022/06/24 00:24:47;;;;;;;9.25;4.63;;;23.20;75.90;;;;;;5052462;28;20033;-64
2022/06/24 00:27:22;;;;;;;8.13;5.13;;;23.20;75.90;;;;;;5039610;28;20088;-63
2022/06/24 00:29:49;;;;;;;8.65;4.95;;;23.20;76.10;;;;;;5054252;28;20785;-63
2022/06/24 00:32:16;;;;;;;9.00;5.40;;;23.20;76.10;;;;;;5045248;28;20017;-63
2022/06/24 00:34:42;;;;;;;7.90;5.50;;;23.20;76.20;;;;;;5055419;28;20095;-63
2022/06/24 00:37:27;;;;;;;9.73;5.10;;;23.10;76.20;;;;;;5040982;28;20064;-63
2022/06/24 00:40:02;;;;;;;9.75;5.38;;;23.10;76.10;;;;;;5052154;28;20030;-63
2022/06/24 00:42:29;;;;;;;10.18;5.85;;;23.10;76.20;;;;;;5046892;28;20033;-63
2022/06/24 00:45:22;;;;;;;9.10;5.50;;;23.10;76.20;;;;;;5054503;28;20033;-63
2022/06/24 00:47:48;;;;;;;9.15;6.07;;;23.10;76.40;;;;;;5046607;28;20068;-63
2022/06/24 00:50:26;;;;;;;9.52;5.40;;;23.10;76.30;;;;;;5048951;28;20037;-62
2022/06/24 00:52:53;;;;;;;9.35;5.93;;;23.10;76.10;;;;;;5048751;28;20029;-64
2022/06/24 00:55:30;;;;;;;8.82;6.20;;;23.10;76.00;;;;;;5051742;28;20067;-63
2022/06/24 00:57:57;;;;;;;8.68;5.75;;;23.10;76.00;;;;;;5040566;28;20336;-63
2022/06/24 01:00:28;;;;;;;9.77;6.00;;;23.10;75.90;;;;;;5045785;28;20299;-63
2022/06/24 01:03:05;;;;;;;8.77;5.97;;;23.10;75.90;;;;;;5037709;28;20021;-63
2022/06/24 01:05:33;;;;;;;10.48;6.13;;;23.10;75.90;;;;;;5044672;28;20104;-63
2022/06/24 01:08:05;;;;;;;10.13;5.78;;;23.00;76.00;;;;;;5038636;28;20029;-63
2022/06/24 01:10:31;;;;;;;10.55;6.03;;;23.00;76.00;;;;;;5026618;28;20025;-62
2022/06/24 01:12:57;;;;;;;11.63;5.85;;;22.90;76.10;;;;;;5044787;28;20072;-63
2022/06/24 01:15:22;;;;;;;10.88;6.35;;;22.90;76.00;;;;;;5047741;28;20053;-63
2022/06/24 01:17:48;;;;;;;8.80;5.68;;;22.90;76.10;;;;;;5044496;28;20406;-63
2022/06/24 01:20:14;;;;;;;9.32;6.28;;;22.90;76.30;;;;;;5047702;28;20111;-63
2022/06/24 01:22:41;;;;;;;9.82;6.97;;;22.90;76.40;;;;;;5037854;28;20025;-63
2022/06/24 01:25:08;;;;;;;8.98;6.57;;;23.00;76.60;;;;;;5053941;28;20029;-63
2022/06/24 01:27:34;;;;;;;9.40;6.93;;;23.00;76.60;;;;;;5038177;28;20332;-63
2022/06/24 01:29:59;;;;;;;9.75;6.63;;;23.00;76.70;;;;;;5044074;28;20039;-63
2022/06/24 01:32:25;;;;;;;11.57;6.82;;;23.00;76.90;;;;;;5049301;28;20354;-63
2022/06/24 01:34:51;;;;;;;10.43;6.68;;;23.00;76.90;;;;;;5050188;28;20410;-63
2022/06/24 01:37:16;;;;;;;11.00;6.47;;;23.00;77.00;;;;;;5046273;28;20032;-63
2022/06/24 01:39:42;;;;;;;14.25;7.20;;;23.00;77.10;;;;;;5043997;28;20021;-63
2022/06/24 01:42:08;;;;;;;10.43;6.97;;;22.90;77.10;;;;;;5052065;28;20033;-63
2022/06/24 01:44:35;;;;;;;12.07;7.63;;;23.00;77.20;;;;;;5054912;28;20150;-64
2022/06/24 01:47:01;;;;;;;10.43;6.97;;;23.00;77.30;;;;;;5051266;28;20033;-63
2022/06/24 01:49:28;;;;;;;12.13;7.13;;;22.90;77.30;;;;;;5049199;28;20027;-63
2022/06/24 01:51:55;;;;;;;10.13;6.30;;;22.90;77.30;;;;;;5048666;28;20024;-63
2022/06/24 01:54:21;;;;;;;10.13;6.20;;;22.90;77.30;;;;;;5051396;28;20043;-65
2022/06/24 01:56:47;;;;;;;10.70;6.13;;;22.90;77.40;;;;;;5053608;28;20399;-63
2022/06/24 01:59:14;;;;;;;9.30;5.30;;;22.80;77.30;;;;;;5045203;28;20021;-65
2022/06/24 02:01:41;;;;;;;9.10;5.60;;;22.80;77.40;;;;;;5046217;28;20128;-65
2022/06/24 02:04:07;;;;;;;9.63;5.30;;;22.80;77.30;;;;;;5046535;28;20107;-65
2022/06/24 02:06:32;;;;;;;9.35;5.25;;;22.80;77.30;;;;;;5045028;28;20116;-63
2022/06/24 02:08:58;;;;;;;9.48;5.70;;;22.70;77.30;;;;;;5041535;28;20064;-63
2022/06/24 02:14:09;;;;;;;9.57;5.70;;;22.70;77.50;;;;;;5039858;28;20116;-64
2022/06/24 02:16:36;;;;;;;8.50;5.95;;;22.70;77.50;;;;;;5043763;28;20025;-66
2022/06/24 02:19:04;;;;;;;9.63;6.38;;;22.70;77.60;;;;;;5044737;28;20033;-66
2022/06/24 02:21:31;;;;;;;11.15;6.43;;;22.70;77.80;;;;;;5040130;28;20056;-66
2022/06/24 02:23:56;;;;;;;8.13;5.35;;;22.70;77.80;;;;;;5045886;28;20037;-66
2022/06/24 02:26:23;;;;;;;9.63;5.53;;;22.70;77.80;;;;;;5040490;28;20110;-66
2022/06/24 02:28:49;;;;;;;10.88;5.40;;;22.70;77.80;;;;;;5040722;28;20033;-66
2022/06/24 02:31:15;;;;;;;8.23;4.45;;;22.70;77.90;;;;;;5050397;28;20283;-66
2022/06/24 02:33:40;;;;;;;8.32;4.97;;;22.60;77.90;;;;;;5047288;28;20040;-63
2022/06/24 02:36:07;;;;;;;7.13;3.80;;;22.60;77.80;;;;;;5048442;28;20029;-63
2022/06/24 02:38:34;;;;;;;6.85;3.70;;;22.60;77.90;;;;;;5040088;28;20350;-63
2022/06/24 02:41:00;;;;;;;7.43;3.83;;;22.60;78.00;;;;;;5047529;28;20124;-63
2022/06/24 02:43:30;;;;;;;6.68;4.07;;;22.60;78.00;;;;;;5041213;28;20105;-63
2022/06/24 02:46:01;;;;;;;6.90;3.63;;;22.60;78.10;;;;;;5046037;28;20443;-63
2022/06/24 02:48:27;;;;;;;5.40;2.85;;;22.60;78.10;;;;;;5049884;28;20484;-63
2022/06/24 02:50:55;;;;;;;6.95;2.92;;;22.50;77.90;;;;;;5053558;28;20048;-63
2022/06/24 02:53:22;;;;;;;5.68;2.50;;;22.50;77.90;;;;;;5047763;28;20040;-63
2022/06/24 02:55:50;;;;;;;5.53;2.42;;;22.50;77.70;;;;;;5034130;28;20021;-65
2022/06/24 02:58:16;;;;;;;3.35;1.63;;;22.50;77.60;;;;;;5045431;28;20425;-64
2022/06/24 03:00:43;;;;;;;3.95;1.90;;;22.40;77.30;;;;;;5046176;28;20021;-63
2022/06/24 03:03:10;;;;;;;5.00;1.67;;;22.40;77.20;;;;;;5045930;28;20044;-63
2022/06/24 03:05:36;;;;;;;4.57;1.70;;;22.30;77.10;;;;;;5046664;28;20362;-63
2022/06/24 03:08:01;;;;;;;3.60;1.65;;;22.20;76.90;;;;;;5050732;28;20025;-63
2022/06/24 03:10:27;;;;;;;5.78;2.00;;;22.20;76.80;;;;;;5040782;28;20021;-63
2022/06/24 03:12:53;;;;;;;3.33;1.50;;;22.20;76.70;;;;;;5035706;28;20446;-63
2022/06/24 03:15:19;;;;;;;5.68;2.03;;;22.20;76.70;;;;;;5048070;28;20132;-63
2022/06/24 03:17:44;;;;;;;4.93;2.22;;;22.10;76.70;;;;;;5035577;28;20076;-63
2022/06/24 03:20:10;;;;;;;4.47;2.20;;;22.10;76.70;;;;;;5032836;28;20042;-63
2022/06/24 03:22:36;;;;;;;4.35;2.00;;;22.10;76.80;;;;;;5046667;28;20026;-63
2022/06/24 03:25:03;;;;;;;6.80;1.90;;;22.00;76.90;;;;;;5041723;28;20039;-63
2022/06/24 03:27:29;;;;;;;4.88;1.60;;;22.00;76.90;;;;;;5045996;28;20057;-63
2022/06/24 03:29:54;;;;;;;3.95;1.60;;;22.00;76.70;;;;;;5048974;28;20438;-63
2022/06/24 03:32:20;;;;;;;4.10;1.70;;;22.00;76.60;;;;;;5049593;28;20092;-63
2022/06/24 03:34:46;;;;;;;4.00;1.65;;;21.90;76.50;;;;;;5051030;28;20111;-63
2022/06/24 03:37:12;;;;;;;3.72;1.73;;;21.90;76.50;;;;;;5043004;28;20128;-63
2022/06/24 03:39:37;;;;;;;6.22;2.05;;;21.90;76.50;;;;;;5046376;28;20421;-63
2022/06/24 03:42:03;;;;;;;4.32;1.77;;;21.90;76.60;;;;;;5037499;28;20033;-63
2022/06/24 03:44:29;;;;;;;4.85;2.47;;;21.80;76.60;;;;;;5048492;28;20346;-63
2022/06/24 03:46:55;;;;;;;5.13;2.22;;;21.80;76.50;;;;;;5040044;28;20021;-63
2022/06/24 03:49:21;;;;;;;5.78;2.58;;;21.80;76.50;;;;;;5035898;28;20017;-63
2022/06/24 03:51:47;;;;;;;4.10;1.98;;;21.80;76.40;;;;;;5036756;28;20086;-65
2022/06/24 03:54:12;;;;;;;7.35;2.30;;;21.80;76.60;;;;;;5034839;28;20025;-63
2022/06/24 03:56:38;;;;;;;4.35;2.03;;;21.80;76.60;;;;;;5034449;28;20488;-64
2022/06/24 03:59:04;;;;;;;3.95;1.90;;;21.70;76.60;;;;;;5035192;28;20032;-67
2022/06/24 04:01:30;;;;;;;4.25;1.90;;;21.70;77.20;;;;;;5032628;28;20045;-65
2022/06/24 04:03:56;;;;;;;5.13;2.05;;;21.70;76.50;;;;;;5034668;28;20057;-65
2022/06/24 04:06:21;;;;;;;4.57;1.98;;;21.70;76.40;;;;;;5048968;28;20064;-64
2022/06/24 04:08:47;;;;;;;5.20;2.10;;;21.70;76.30;;;;;;5025754;28;20028;-64
2022/06/24 04:11:15;;;;;;;4.85;2.10;;;21.70;76.40;;;;;;5041873;28;20047;-65
2022/06/24 04:13:41;;;;;;;4.53;1.98;;;21.70;76.30;;;;;;5049728;28;20029;-66
2022/06/24 04:16:07;;;;;;;6.00;2.13;;;21.70;76.30;;;;;;5039517;28;20681;-64
2022/06/24 04:18:33;;;;;;;4.68;2.03;;;21.60;76.20;;;;;;5041931;28;20103;-65
2022/06/24 04:20:59;;;;;;;3.75;1.88;;;21.60;76.00;;;;;;5043911;28;20357;-64
2022/06/24 04:23:25;;;;;;;5.72;2.20;;;21.60;76.00;;;;;;5037343;28;20462;-64
2022/06/24 04:25:51;;;;;;;5.68;2.13;;;21.60;76.00;;;;;;5043349;28;20090;-68
2022/06/24 04:28:17;;;;;;;5.18;2.20;;;21.60;76.00;;;;;;5042629;28;20036;-64
2022/06/24 04:30:43;;;;;;;5.22;2.03;;;21.60;75.90;;;;;;5043353;28;20370;-64
2022/06/24 04:33:09;;;;;;;5.25;2.08;;;21.60;75.90;;;;;;5039845;28;20040;-64
2022/06/24 04:35:35;;;;;;;7.55;2.30;;;21.60;75.90;;;;;;5038903;28;20029;-64
2022/06/24 04:38:01;;;;;;;4.28;2.00;;;21.50;75.90;;;;;;5039478;28;20022;-64
2022/06/24 04:40:27;;;;;;;3.83;1.73;;;21.50;75.90;;;;;;5045394;28;20032;-65
2022/06/24 04:42:53;;;;;;;5.13;2.10;;;21.50;75.90;;;;;;5043527;28;20403;-64
2022/06/24 04:45:19;;;;;;;5.88;2.33;;;21.50;75.90;;;;;;5038820;28;20219;-64
2022/06/24 04:47:44;;;;;;;5.35;2.33;;;21.50;75.90;;;;;;5042134;28;20088;-64
2022/06/24 04:50:10;;;;;;;4.07;2.10;;;21.50;76.00;;;;;;5041683;28;20458;-64
2022/06/24 04:52:37;;;;;;;5.18;2.08;;;21.50;76.10;;;;;;5042056;28;20026;-64
2022/06/24 04:55:04;;;;;;;6.55;2.35;;;21.50;76.10;;;;;;5038240;28;20028;-65
2022/06/24 04:57:30;;;;;;;6.30;2.08;;;21.50;76.00;;;;;;5036400;28;20546;-64
2022/06/24 04:59:55;;;;;;;7.28;2.33;;;21.50;76.00;;;;;;5036252;28;20037;-64
2022/06/24 05:02:21;;;;;;;5.05;2.28;;;21.40;76.10;;;;;;5035899;28;20186;-64
2022/06/24 05:04:47;;;;;;;4.97;2.10;;;21.50;76.20;;;;;;5055189;28;20112;-64
2022/06/24 05:07:12;;;;;;;7.10;2.58;;;21.50;76.30;;;;;;5050437;28;20044;-63
2022/06/24 05:09:38;;;;;;;5.85;2.30;;;21.50;76.40;;;;;;5043029;28;20106;-63
2022/06/24 05:12:04;;;;;;;6.80;2.40;;;21.40;76.50;;;;;;5043314;28;20021;-63
2022/06/24 05:14:30;;;;;;;4.97;2.17;;;21.40;76.60;;;;;;5056117;28;20343;-63
2022/06/24 05:16:59;;;;;;;6.57;2.72;;;21.40;76.60;;;;;;5049271;28;20087;-63
2022/06/24 05:19:25;;;;;;;6.15;2.40;;;21.40;76.60;;;;;;5056084;28;20476;-63
2022/06/24 05:21:51;;;;;;;6.20;2.25;;;21.40;76.60;;;;;;5043584;28;20095;-66
2022/06/24 05:24:17;;;;;;;6.40;2.58;;;21.40;76.50;;;;;;5042527;28;20028;-64
2022/06/24 05:26:46;;;;;;;6.30;2.45;;;21.40;76.50;;;;;;5042263;28;20121;-64
2022/06/24 05:29:12;;;;;;;5.05;2.10;;;21.40;76.50;;;;;;5047289;28;20041;-63
2022/06/24 05:31:38;;;;;;;8.32;2.45;;;21.40;76.50;;;;;;5044260;28;20041;-63
2022/06/24 05:34:04;;;;;;;7.15;2.55;;;21.40;76.60;;;;;;5046923;28;20030;-63
2022/06/24 05:36:30;;;;;;;5.57;3.00;;;21.40;76.60;;;;;;5047717;28;20040;-63
2022/06/24 05:38:56;;;;;;;5.95;2.50;;;21.40;76.70;;;;;;5038306;28;20026;-63
2022/06/24 05:41:22;;;;;;;8.50;2.67;;;21.40;76.70;;;;;;5045115;28;20040;-63
2022/06/24 05:43:48;;;;;;;5.65;2.55;;;21.40;76.80;;;;;;5047308;28;20025;-63
2022/06/24 05:46:14;;;;;;;6.25;2.60;;;21.40;76.80;;;;;;5045686;28;20256;-63
2022/06/24 05:48:40;;;;;;;7.07;2.63;;;21.40;76.80;;;;;;5041340;28;20021;-63
2022/06/24 05:51:15;;;;;;;5.35;2.70;;;21.50;76.80;;;;;;5045471;28;20494;-64
2022/06/24 05:56:25;;;;;;;5.25;2.22;;;21.50;76.80;;;;;;5044570;28;20020;-64
2022/06/24 05:58:51;;;;;;;6.07;2.47;;;21.50;76.90;;;;;;5045686;28;20449;-63
2022/06/24 06:01:17;;;;;;;6.60;2.22;;;21.50;77.00;;;;;;5049599;28;20025;-64
2022/06/24 06:03:43;;;;;;;5.72;2.47;;;21.50;77.70;;;;;;5045170;28;20465;-64
2022/06/24 06:06:09;;;;;;;5.63;2.55;;;21.50;77.20;;;;;;5046131;28;20481;-63
2022/06/24 06:08:37;;;;;;;7.40;2.83;;;21.40;77.40;;;;;;5040565;28;20079;-64
2022/06/24 06:11:18;;;;;;;6.13;2.75;;;21.40;77.40;;;;;;5037353;28;20094;-63
2022/06/24 06:13:45;;;;;;;7.33;2.77;;;21.40;77.40;;;;;;5040556;28;20095;-63
2022/06/24 06:16:11;;;;;;;6.35;2.70;;;21.40;77.50;;;;;;5043872;28;20287;-64
2022/06/24 06:18:37;;;;;;;9.65;2.88;;;21.40;77.40;;;;;;5048124;28;20021;-64
2022/06/24 06:21:05;;;;;;;6.03;2.63;;;21.40;77.30;;;;;;5054928;28;20017;-64
2022/06/24 06:23:33;;;;;;;5.82;2.70;;;21.40;77.40;;;;;;5052398;28;20311;-63
2022/06/24 06:26:00;;;;;;;7.10;3.03;;;21.40;77.50;;;;;;5042362;28;20044;-64
2022/06/24 06:28:26;;;;;;;5.65;2.60;;;21.40;77.50;;;;;;5051753;28;20067;-63
2022/06/24 06:30:52;;;;;;;6.15;3.13;;;21.40;77.50;;;;;;5048407;28;20065;-63
2022/06/24 06:33:18;;;;;;;7.00;3.10;;;21.40;77.40;;;;;;5044807;28;20042;-63
2022/06/24 06:35:45;;;;;;;7.32;3.20;;;21.50;77.40;;;;;;5050251;28;20082;-64
2022/06/24 06:38:11;;;;;;;6.45;3.17;;;21.50;77.20;;;;;;5044608;28;20396;-63
2022/06/24 06:40:37;;;;;;;10.50;3.10;;;21.50;77.20;;;;;;5034391;28;20168;-64
2022/06/24 06:43:05;;;;;;;8.30;3.40;;;21.50;77.20;;;;;;5051597;28;20063;-64
2022/06/24 06:45:32;;;;;;;7.72;2.85;;;21.50;77.20;;;;;;5042058;28;20095;-64
2022/06/24 06:47:58;;;;;;;6.65;3.00;;;21.50;77.20;;;;;;5046586;28;20032;-64
2022/06/24 06:50:23;;;;;;;7.03;3.00;;;21.50;77.20;;;;;;5052348;28;20029;-63
2022/06/24 06:52:49;;;;;;;5.70;2.60;;;21.50;77.10;;;;;;5050131;28;20485;-64
2022/06/24 06:55:15;;;;;;;6.43;2.97;;;21.50;77.20;;;;;;5053601;28;20053;-63
2022/06/24 06:57:41;;;;;;;6.35;3.05;;;21.50;77.30;;;;;;5047185;28;20036;-64
2022/06/24 07:00:09;;;;;;;7.13;3.20;;;21.60;77.30;;;;;;5046314;28;20028;-64
2022/06/24 07:02:38;;;;;;;6.93;2.90;;;21.60;77.10;;;;;;5044172;28;20033;-64
2022/06/24 07:05:05;;;;;;;8.23;3.15;;;21.60;77.10;;;;;;5039519;28;20090;-64
2022/06/24 07:07:30;;;;;;;7.15;3.50;;;21.60;77.20;;;;;;5037403;28;20026;-63
2022/06/24 07:09:57;;;;;;;6.95;3.10;;;21.60;77.30;;;;;;5033597;28;20436;-63
2022/06/24 07:12:23;;;;;;;7.63;3.10;;;21.60;77.40;;;;;;5031416;28;20125;-64
2022/06/24 07:14:49;;;;;;;6.10;2.95;;;21.60;77.50;;;;;;5034395;28;20045;-64
2022/06/24 07:17:15;;;;;;;8.15;3.33;;;21.60;77.60;;;;;;5034318;28;20031;-63
2022/06/24 07:19:41;;;;;;;6.88;3.22;;;21.60;77.60;;;;;;5036672;28;20060;-64
2022/06/24 07:22:07;;;;;;;7.32;3.53;;;21.60;78.30;;;;;;5032323;28;20029;-64
2022/06/24 07:24:33;;;;;;;7.10;3.25;;;21.60;77.60;;;;;;5038626;28;20105;-64
2022/06/24 07:27:05;;;;;;;7.90;3.42;;;21.70;77.80;;;;;;5038434;28;20057;-64
2022/06/24 07:29:33;;;;;;;7.75;3.50;;;21.60;77.80;;;;;;5034546;28;20044;-66
2022/06/24 07:31:59;;;;;;;8.32;3.40;;;21.60;77.80;;;;;;5035882;28;20059;-65
2022/06/24 07:34:26;;;;;;;7.10;3.53;;;21.60;77.80;;;;;;5033347;28;20025;-65
2022/06/24 07:36:53;;;;;;;6.85;3.40;;;21.60;77.90;;;;;;5036058;28;20022;-65
2022/06/24 07:39:18;;;;;;;6.80;3.08;;;21.60;78.00;;;;;;5033308;28;20030;-65
2022/06/24 07:41:45;;;;;;;6.13;3.10;;;21.60;78.10;;;;;;5034292;28;20059;-65
2022/06/24 07:44:10;;;;;;;6.80;3.50;;;21.60;78.20;;;;;;5038927;28;20033;-65
2022/06/24 07:46:36;;;;;;;6.43;3.25;;;21.60;78.20;;;;;;5040033;28;20048;-64
2022/06/24 07:49:04;;;;;;;6.10;3.42;;;21.60;78.20;;;;;;5036926;28;20059;-63
2022/06/24 07:51:29;;;;;;;6.95;3.85;;;21.60;78.20;;;;;;5040425;28;20029;-63
2022/06/24 07:53:55;;;;;;;6.40;3.55;;;21.60;78.30;;;;;;5042390;28;20036;-64
2022/06/24 07:59:05;;;;;;;6.57;3.42;;;21.50;78.40;;;;;;5045713;28;20124;-64
2022/06/24 08:01:32;;;;;;;8.98;4.10;;;21.50;78.40;;;;;;5043178;28;20032;-65
2022/06/24 08:03:58;;;;;;;8.13;3.92;;;21.50;78.50;;;;;;5038118;28;20025;-65
2022/06/24 08:06:24;;;;;;;6.20;3.63;;;21.50;78.50;;;;;;5042150;28;20029;-64
2022/06/24 08:08:50;;;;;;;8.02;4.20;;;21.50;78.50;;;;;;5041614;28;20037;-64
2022/06/24 08:11:15;;;;;;;7.40;4.03;;;21.50;78.60;;;;;;5051919;28;20124;-64
2022/06/24 08:13:41;;;;;;;8.45;4.65;;;21.50;78.70;;;;;;5052055;28;20021;-64
2022/06/24 08:16:07;;;;;;;8.52;4.68;;;21.50;78.70;;;;;;5050301;28;20045;-64
2022/06/24 08:18:33;;;;;;;8.20;4.05;;;21.60;78.80;;;;;;5044331;28;20028;-64
2022/06/24 08:20:58;;;;;;;8.55;5.00;;;21.60;78.80;;;;;;5050572;28;20363;-64
2022/06/24 08:23:24;;;;;;;9.30;4.90;;;21.60;78.80;;;;;;5042577;28;20061;-65
2022/06/24 08:25:50;;;;;;;8.10;4.35;;;21.60;78.80;;;;;;5050115;28;20566;-63
2022/06/24 08:28:15;;;;;;;7.65;4.72;;;21.60;78.80;;;;;;5045651;28;20036;-65
2022/06/24 08:30:41;;;;;;;7.72;4.22;;;21.60;78.70;;;;;;5053885;28;20094;-65
2022/06/24 08:33:07;;;;;;;8.38;5.05;;;21.70;78.70;;;;;;5046174;28;20040;-65
2022/06/24 08:35:32;;;;;;;7.97;5.22;;;21.70;78.70;;;;;;5051305;28;20028;-65
2022/06/24 08:37:58;;;;;;;9.13;5.78;;;21.80;78.60;;;;;;5047562;28;20025;-65
2022/06/24 08:40:28;;;;;;;10.70;5.43;;;21.80;78.50;;;;;;5046906;28;20032;-65
2022/06/24 08:42:58;;;;;;;7.63;5.15;;;21.90;78.50;;;;;;5038717;28;20121;-65
2022/06/24 08:45:25;;;;;;;9.88;5.53;;;22.00;78.30;;;;;;5048928;28;20039;-64
2022/06/24 08:47:51;;;;;;;10.27;5.07;;;22.00;78.30;;;;;;5050255;28;20029;-65
2022/06/24 08:50:18;;;;;;;8.85;5.07;;;22.10;78.30;;;;;;5051780;28;20033;-65
2022/06/24 08:52:49;;;;;;;8.25;5.47;;;22.20;78.20;;;;;;5037699;28;20059;-64
2022/06/24 08:55:19;;;;;;;;;;;22.30;78.20;;;;;;5051665;28;20362;-65
2022/06/24 08:57:46;;;;;;;8.10;5.35;;;22.30;77.80;;;;;;5050754;28;20257;-64
2022/06/24 09:00:13;;;;;;;8.32;4.97;;;22.40;77.80;;;;;;5050386;28;20028;-65
2022/06/24 09:02:39;;;;;;;10.02;6.10;;;22.40;77.80;;;;;;5049055;28;20328;-64
2022/06/24 09:05:13;;;;;;;8.23;5.93;;;22.40;77.80;;;;;;5047481;28;20044;-64
2022/06/24 09:07:39;;;;;;;11.00;5.90;;;22.40;77.80;;;;;;5048313;28;20043;-65
2022/06/24 09:10:11;;;;;;;9.55;5.75;;;22.60;78.40;;;;;;5045805;28;20041;-64
2022/06/24 09:12:48;;;;;;;10.48;6.75;;;22.60;77.70;;;;;;5048475;28;20028;-64
2022/06/24 09:15:14;;;;;;;11.10;6.30;;;22.70;77.70;;;;;;5049673;28;20373;-64
2022/06/24 09:17:41;;;;;;;9.63;6.25;;;22.70;77.70;;;;;;5045304;28;20026;-64
2022/06/24 09:20:16;;;;;;;10.07;5.78;;;22.80;77.60;;;;;;5041811;28;20030;-65
2022/06/24 09:22:42;;;;;;;7.68;5.47;;;22.90;77.50;;;;;;5041512;28;20425;-65
2022/06/24 09:25:08;;;;;;;8.38;5.47;;;22.90;77.20;;;;;;5048243;28;20063;-65
2022/06/24 09:27:35;;;;;;;8.43;5.25;;;22.90;77.10;;;;;;5045286;28;20108;-65
2022/06/24 09:30:01;;;;;;;7.78;5.03;;;23.00;77.70;;;;;;5047078;28;20419;-65
2022/06/24 09:32:27;;;;;;;8.02;4.95;;;23.00;76.90;;;;;;5048098;28;20104;-65
2022/06/24 09:35:07;;;;;;;7.85;4.60;;;23.10;76.80;;;;;;5043720;28;20112;-65
2022/06/24 09:37:45;;;;;;;8.15;5.13;;;23.10;76.60;;;;;;5030960;28;20028;-63
2022/06/24 09:40:24;;;;;;;6.90;4.55;;;23.10;76.60;;;;;;5044507;28;20025;-63
2022/06/24 09:43:06;;;;;;;9.30;5.75;;;23.10;76.50;;;;;;5041331;28;20116;-64
2022/06/24 09:45:52;;;;;;;8.88;5.60;;;23.10;76.30;;;;;;5043876;28;20048;-63
2022/06/24 09:48:32;;;;;;;9.20;6.00;;;23.00;76.20;;;;;;5041494;28;20350;-63
2022/06/24 09:51:03;;;;;;;8.07;5.28;;;23.00;76.30;;;;;;5042324;28;20117;-63
2022/06/24 09:53:35;;;;;;;9.10;6.20;;;23.00;76.40;;;;;;5039955;28;20090;-63
2022/06/24 09:56:02;;;;;;;9.93;6.03;;;23.00;76.40;;;;;;5035191;28;20369;-63
2022/06/24 09:58:27;;;;;;;10.23;6.00;;;23.00;76.30;;;;;;5036796;28;20044;-63
2022/06/24 10:00:54;;;;;;;8.18;5.97;;;23.00;76.20;;;;;;5036107;28;20060;-63
2022/06/24 10:03:19;;;;;;;7.93;5.90;;;23.00;76.30;;;;;;5040294;28;20057;-64
2022/06/24 10:05:51;;;;;;;8.25;6.25;;;23.00;76.30;;;;;;5042419;28;20465;-66
2022/06/24 10:08:22;;;;;;;9.57;6.20;;;23.00;76.30;;;;;;5039488;28;20037;-63
2022/06/24 10:10:53;;;;;;;8.55;6.30;;;23.00;76.40;;;;;;5042407;28;20132;-64
2022/06/24 10:13:26;;;;;;;10.02;7.00;;;23.00;76.40;;;;;;5038177;28;20112;-64
2022/06/24 10:15:53;;;;;;;11.07;7.60;;;23.00;76.40;;;;;;5038407;28;20041;-64
2022/06/24 10:18:22;;;;;;;10.10;7.32;;;23.00;76.40;;;;;;5034199;28;20044;-64
2022/06/24 10:20:50;;;;;;;10.23;7.47;;;23.00;76.30;;;;;;5034045;28;20034;-64
2022/06/24 10:23:40;;;;;;;9.60;7.65;;;23.10;76.30;;;;;;5033065;28;20949;-65
2022/06/24 10:26:25;;;;;;;10.23;6.95;;;23.10;76.00;;;;;;5035174;28;20060;-64
2022/06/24 10:29:00;;;;;;;11.10;7.20;;;23.10;75.90;;;;;;5034771;28;20037;-64
2022/06/24 10:31:53;;;;;;;10.88;8.00;;;23.20;75.80;;;;;;5036460;28;20045;-64
2022/06/24 10:34:28;;;;;;;10.05;7.90;;;23.20;75.80;;;;;;5034055;28;20038;-64
2022/06/24 10:36:57;;;;;;;10.18;8.00;;;23.40;75.70;;;;;;5039317;28;20029;-64
2022/06/24 10:39:25;;;;;;;10.02;8.50;;;23.40;75.60;;;;;;5036182;28;20365;-63
2022/06/24 10:42:07;;;;;;;11.18;8.45;;;23.50;75.40;;;;;;5039250;28;20091;-64
2022/06/24 10:44:35;;;;;;;10.45;8.20;;;23.60;75.30;;;;;;5034845;28;20025;-64
2022/06/24 10:47:12;;;;;;;9.52;7.63;;;23.70;75.10;;;;;;5039568;28;20034;-64
2022/06/24 10:49:54;;;;;;;10.20;8.40;;;23.90;74.80;;;;;;5036729;28;20037;-65
2022/06/24 10:52:36;;;;;;;11.48;9.18;;;23.90;74.40;;;;;;5033453;28;20029;-64
2022/06/24 10:57:50;;;;;;;10.13;7.00;;;24.00;74.20;;;;;;5034650;28;20451;-64
2022/06/24 11:00:18;;;;;;;13.48;7.82;;;24.20;73.60;;;;;;5042156;28;20091;-64
2022/06/24 11:02:45;;;;;;;10.63;7.90;;;24.40;73.20;;;;;;5035847;28;20030;-64
2022/06/24 11:05:30;;;;;;;9.98;8.23;;;24.50;72.50;;;;;;5036452;28;20041;-64
2022/06/24 11:07:56;;;;;;;12.13;9.35;;;24.70;72.10;;;;;;5037265;28;20029;-64
2022/06/24 11:10:26;;;;;;;10.40;8.77;;;24.90;71.60;;;;;;5039200;28;20029;-64
2022/06/24 11:12:53;;;;;;;11.90;8.55;;;24.90;71.20;;;;;;5046531;28;20032;-65
2022/06/24 11:15:31;;;;;;;9.75;8.63;;;24.90;71.20;;;;;;5050005;28;20142;-64
2022/06/24 11:17:56;;;;;;;10.02;8.52;;;25.10;71.00;;;;;;5052916;28;20382;-64
2022/06/24 11:20:22;;;;;;;10.20;8.15;;;25.30;70.50;;;;;;5038557;28;20128;-65
2022/06/24 11:22:48;;;;;;;10.48;7.43;;;25.50;70.10;;;;;;5040114;28;20029;-64
2022/06/24 11:25:15;;;;;;;9.23;7.00;;;25.60;69.70;;;;;;5054391;28;20043;-64
2022/06/24 11:27:41;;;;;;;9.73;7.32;;;25.70;69.40;;;;;;5053896;28;20444;-64
2022/06/24 11:30:08;;;;;;;10.43;6.75;;;25.70;69.20;;;;;;5047605;28;20057;-64
2022/06/24 11:32:50;;;;;;;8.80;6.95;;;25.70;69.10;;;;;;5049065;28;20033;-64
2022/06/24 11:35:17;;;;;;;8.95;6.60;;;25.70;68.80;;;;;;5045626;28;20036;-64
2022/06/24 11:37:43;;;;;;;8.38;5.38;;;25.90;68.10;;;;;;5039969;28;20025;-64
2022/06/24 11:40:09;;;;;;;7.22;5.20;;;26.00;67.30;;;;;;5040962;28;20021;-64
2022/06/24 11:42:35;;;;;;;8.23;5.05;;;26.00;67.00;;;;;;5048669;28;20025;-64
2022/06/24 11:45:01;;;;;;;7.93;5.25;;;26.10;66.80;;;;;;5045435;28;20048;-64
2022/06/24 11:47:33;;;;;;;7.38;4.95;;;26.30;66.20;;;;;;5039367;28;20029;-64
2022/06/24 11:49:59;;;;;;;7.38;4.63;;;26.50;65.70;;;;;;5049110;28;20052;-64
2022/06/24 11:52:24;;;;;;;7.30;5.07;;;26.50;65.20;;;;;;5053690;28;20033;-64
2022/06/24 11:54:50;;;;;;;7.65;4.13;;;26.40;65.00;;;;;;5040066;28;20603;-64
2022/06/24 11:57:16;;;;;;;7.70;4.25;;;26.50;64.80;;;;;;5038272;28;20029;-64
2022/06/24 11:59:42;;;;;;;6.90;4.35;;;26.40;64.70;;;;;;5038839;28;20044;-64
2022/06/24 12:02:11;;;;;;;7.40;4.55;;;26.20;64.60;;;;;;5040270;28;20051;-64
2022/06/24 12:04:37;;;;;;;7.63;4.80;;;25.90;64.70;;;;;;5040933;28;20358;-64
2022/06/24 12:07:06;;;;;;;7.95;5.15;;;25.70;64.80;;;;;;5035442;28;20469;-64
2022/06/24 12:09:33;;;;;;;10.85;5.47;;;25.50;65.20;;;;;;5039091;28;20044;-64
2022/06/24 12:12:12;;;;;;;8.02;5.40;;;25.30;65.40;;;;;;5032274;28;20053;-64
2022/06/24 12:14:38;;;;;;;8.82;6.40;;;25.10;65.60;;;;;;5035965;28;20136;-64
2022/06/24 12:17:09;;;;;;;12.30;7.80;;;24.90;66.10;;;;;;5032384;28;20113;-63
2022/06/24 12:19:39;;;;;;;8.27;6.50;;;24.70;67.00;;;;;;5035438;28;20446;-63
2022/06/24 12:22:10;;;;;;;9.23;6.20;;;24.50;67.60;;;;;;5037265;28;20032;-63
2022/06/24 12:24:37;;;;;;;6.95;5.03;;;24.40;68.30;;;;;;5035686;28;20021;-63
2022/06/24 12:27:04;;;;;;;7.13;4.68;;;24.10;68.60;;;;;;5035142;28;20124;-63
2022/06/24 12:29:42;;;;;;;8.25;4.20;;;24.00;69.20;;;;;;5035398;28;20035;-63
2022/06/24 12:32:09;;;;;;;6.10;3.42;;;23.90;69.50;;;;;;5031928;28;20534;-63
2022/06/24 12:34:40;;;;;;;6.85;4.07;;;23.90;69.70;;;;;;5036997;28;20123;-63
2022/06/24 12:37:11;;;;;;;6.60;4.18;;;24.00;69.90;;;;;;5036995;28;20049;-63
2022/06/24 12:39:39;;;;;;;6.97;3.97;;;24.20;69.50;;;;;;5036095;28;20026;-63
2022/06/24 12:42:06;;;;;;;6.72;3.90;;;24.30;69.50;;;;;;5035508;28;20040;-63
2022/06/24 12:44:53;;;;;;;5.80;3.22;;;24.40;69.40;;;;;;5038387;28;20033;-63
2022/06/24 12:53:00;;;;;;;6.05;3.20;;;24.70;68.80;;;;;;5039609;28;20462;-63
2022/06/24 12:55:27;;;;;;;5.65;3.20;;;24.80;68.80;;;;;;5037347;28;20409;-64
2022/06/24 12:57:53;;;;;;;5.53;3.20;;;24.90;68.70;;;;;;5035380;28;20361;-64
2022/06/24 13:00:19;;;;;;;6.07;3.50;;;24.90;68.50;;;;;;5036736;28;20078;-64
2022/06/24 13:02:52;;;;;;;7.30;3.75;;;24.90;68.50;;;;;;5035201;28;20421;-64
2022/06/24 13:05:21;;;;;;;5.93;3.38;;;24.90;68.30;;;;;;5040688;28;20120;-64